sensor_id;sensor_type;location;lat;lon;timestamp;pressure;altitude;pressure_sealevel;temperature;humidity
60015;BME280;45867;52.480;6.056;2023-04-25T00:01:10;100810.34;;;4.05;100.00
60015;BME280;45867;52.480;6.056;2023-04-25T00:03:38;100814.22;;;4.03;100.00
60015;BME280;45867;52.480;6.056;2023-04-25T00:06:04;100817.44;;;4.16;100.00
60015;BME280;45867;52.480;6.056;2023-04-25T00:08:30;100795.78;;;4.09;100.00
60015;BME280;45867;52.480;6.056;2023-04-25T00:10:58;100800.91;;;4.16;100.00
60015;BME280;45867;52.480;6.056;2023-04-25T00:13:27;100801.97;;;4.27;100.00
60015;BME280;45867;52.480;6.056;2023-04-25T00:15:53;100806.44;;;4.38;100.00
60015;BME280;45867;52.480;6.056;2023-04-25T00:18:19;100788.41;;;4.30;100.00
60015;BME280;45867;52.480;6.056;2023-04-25T00:20:45;100783.50;;;4.33;100.00
60015;BME280;45867;52.480;6.056;2023-04-25T00:23:12;100817.31;;;4.53;100.00
60015;BME280;45867;52.480;6.056;2023-04-25T00:25:46;100796.66;;;4.45;100.00
60015;BME280;45867;52.480;6.056;2023-04-25T00:28:12;100796.88;;;4.43;100.00
60015;BME280;45867;52.480;6.056;2023-04-25T00:30:38;100817.44;;;4.58;100.00
60015;BME280;45867;52.480;6.056;2023-04-25T00:33:04;100822.78;;;4.63;100.00
60015;BME280;45867;52.480;6.056;2023-04-25T00:35:29;100805.00;;;4.54;100.00
60015;BME280;45867;52.480;6.056;2023-04-25T00:37:55;100810.50;;;4.64;100.00
60015;BME280;45867;52.480;6.056;2023-04-25T00:40:21;100824.88;;;4.73;100.00
60015;BME280;45867;52.480;6.056;2023-04-25T00:42:47;100803.97;;;4.55;100.00
60015;BME280;45867;52.480;6.056;2023-04-25T00:45:13;100827.16;;;4.70;100.00
60015;BME280;45867;52.480;6.056;2023-04-25T00:47:42;100831.97;;;4.73;100.00
60015;BME280;45867;52.480;6.056;2023-04-25T00:50:08;100819.03;;;4.71;100.00
60015;BME280;45867;52.480;6.056;2023-04-25T00:52:34;100821.47;;;4.73;100.00
60015;BME280;45867;52.480;6.056;2023-04-25T00:55:00;100829.09;;;4.74;100.00
60015;BME280;45867;52.480;6.056;2023-04-25T00:57:25;100829.53;;;4.71;100.00
60015;BME280;45867;52.480;6.056;2023-04-25T00:59:51;100833.09;;;4.65;100.00
60015;BME280;45867;52.480;6.056;2023-04-25T01:02:18;100820.50;;;4.55;100.00
60015;BME280;45867;52.480;6.056;2023-04-25T01:04:46;100817.53;;;4.52;100.00
60015;BME280;45867;52.480;6.056;2023-04-25T01:07:11;100821.53;;;4.42;100.00
60015;BME280;45867;52.480;6.056;2023-04-25T01:09:37;100846.19;;;4.53;100.00
60015;BME280;45867;52.480;6.056;2023-04-25T01:12:03;100834.50;;;4.37;100.00
60015;BME280;45867;52.480;6.056;2023-04-25T01:14:28;100817.13;;;4.25;100.00
60015;BME280;45867;52.480;6.056;2023-04-25T01:16:55;100832.06;;;4.24;100.00
60015;BME280;45867;52.480;6.056;2023-04-25T01:19:21;100834.03;;;4.29;100.00
60015;BME280;45867;52.480;6.056;2023-04-25T01:21:46;100845.22;;;4.36;100.00
60015;BME280;45867;52.480;6.056;2023-04-25T01:24:14;100843.16;;;4.26;100.00
60015;BME280;45867;52.480;6.056;2023-04-25T01:26:41;100832.28;;;4.22;100.00
60015;BME280;45867;52.480;6.056;2023-04-25T01:29:10;100826.41;;;4.39;100.00
60015;BME280;45867;52.480;6.056;2023-04-25T01:31:36;100842.75;;;4.53;100.00
60015;BME280;45867;52.480;6.056;2023-04-25T01:34:01;100844.13;;;4.55;100.00
60015;BME280;45867;52.480;6.056;2023-04-25T01:36:26;100866.38;;;4.53;100.00
60015;BME280;45867;52.480;6.056;2023-04-25T01:38:52;100861.94;;;4.53;100.00
60015;BME280;45867;52.480;6.056;2023-04-25T01:41:17;100877.44;;;4.55;100.00
60015;BME280;45867;52.480;6.056;2023-04-25T01:43:43;100855.16;;;4.34;100.00
60015;BME280;45867;52.480;6.056;2023-04-25T01:46:10;100876.16;;;4.34;100.00
60015;BME280;45867;52.480;6.056;2023-04-25T01:48:36;100891.34;;;4.43;100.00
60015;BME280;45867;52.480;6.056;2023-04-25T01:51:01;100871.78;;;4.28;100.00
60015;BME280;45867;52.480;6.056;2023-04-25T01:53:27;100876.47;;;4.26;100.00
60015;BME280;45867;52.480;6.056;2023-04-25T01:55:53;100906.50;;;4.41;100.00
60015;BME280;45867;52.480;6.056;2023-04-25T01:58:18;100878.44;;;4.12;100.00
60015;BME280;45867;52.480;6.056;2023-04-25T02:00:44;100883.91;;;4.10;100.00
60015;BME280;45867;52.480;6.056;2023-04-25T02:03:12;100909.25;;;4.16;100.00
60015;BME280;45867;52.480;6.056;2023-04-25T02:05:38;100900.75;;;4.03;100.00
60015;BME280;45867;52.480;6.056;2023-04-25T02:08:05;100904.00;;;3.98;100.00
60015;BME280;45867;52.480;6.056;2023-04-25T02:10:31;100903.31;;;3.91;100.00
60015;BME280;45867;52.480;6.056;2023-04-25T02:12:57;100911.69;;;3.99;100.00
60015;BME280;45867;52.480;6.056;2023-04-25T02:15:23;100908.47;;;3.97;100.00
60015;BME280;45867;52.480;6.056;2023-04-25T02:17:49;100892.88;;;3.84;100.00
60015;BME280;45867;52.480;6.056;2023-04-25T02:20:16;100909.34;;;3.91;100.00
60015;BME280;45867;52.480;6.056;2023-04-25T02:22:42;100895.44;;;3.91;100.00
60015;BME280;45867;52.480;6.056;2023-04-25T02:25:08;100905.69;;;3.92;100.00
60015;BME280;45867;52.480;6.056;2023-04-25T02:27:34;100915.75;;;3.95;100.00
60015;BME280;45867;52.480;6.056;2023-04-25T02:30:00;100909.69;;;3.95;100.00
60015;BME280;45867;52.480;6.056;2023-04-25T02:32:25;100909.50;;;3.96;100.00
60015;BME280;45867;52.480;6.056;2023-04-25T02:34:55;100901.28;;;3.93;100.00
60015;BME280;45867;52.480;6.056;2023-04-25T02:37:20;100903.06;;;3.92;100.00
60015;BME280;45867;52.480;6.056;2023-04-25T02:39:45;100910.78;;;3.87;100.00
60015;BME280;45867;52.480;6.056;2023-04-25T02:42:11;100908.06;;;3.82;100.00
60015;BME280;45867;52.480;6.056;2023-04-25T02:44:36;100924.88;;;3.93;100.00
60015;BME280;45867;52.480;6.056;2023-04-25T02:47:02;100927.25;;;3.94;100.00
60015;BME280;45867;52.480;6.056;2023-04-25T02:49:27;100933.09;;;3.96;100.00
60015;BME280;45867;52.480;6.056;2023-04-25T02:51:52;100918.66;;;3.87;100.00
60015;BME280;45867;52.480;6.056;2023-04-25T02:54:18;100919.03;;;3.91;100.00
60015;BME280;45867;52.480;6.056;2023-04-25T02:56:43;100925.44;;;3.95;100.00
60015;BME280;45867;52.480;6.056;2023-04-25T02:59:09;100929.28;;;3.92;100.00
60015;BME280;45867;52.480;6.056;2023-04-25T03:01:36;100910.00;;;3.87;100.00
60015;BME280;45867;52.480;6.056;2023-04-25T03:04:10;100904.69;;;3.93;100.00
60015;BME280;45867;52.480;6.056;2023-04-25T03:06:36;100905.63;;;3.99;100.00
60015;BME280;45867;52.480;6.056;2023-04-25T03:09:01;100905.94;;;4.09;100.00
60015;BME280;45867;52.480;6.056;2023-04-25T03:11:30;100915.56;;;4.27;100.00
60015;BME280;45867;52.480;6.056;2023-04-25T03:13:55;100935.81;;;4.38;100.00
60015;BME280;45867;52.480;6.056;2023-04-25T03:16:26;100920.22;;;4.25;100.00
60015;BME280;45867;52.480;6.056;2023-04-25T03:18:52;100932.25;;;4.33;100.00
60015;BME280;45867;52.480;6.056;2023-04-25T03:21:17;100939.19;;;4.27;100.00
60015;BME280;45867;52.480;6.056;2023-04-25T03:23:43;100933.59;;;4.23;100.00
60015;BME280;45867;52.480;6.056;2023-04-25T03:26:08;100925.75;;;4.35;100.00
60015;BME280;45867;52.480;6.056;2023-04-25T03:28:36;100949.06;;;4.43;100.00
60015;BME280;45867;52.480;6.056;2023-04-25T03:31:01;100951.69;;;4.43;100.00
60015;BME280;45867;52.480;6.056;2023-04-25T03:33:27;100935.22;;;4.36;100.00
60015;BME280;45867;52.480;6.056;2023-04-25T03:35:52;100944.56;;;4.32;100.00
60015;BME280;45867;52.480;6.056;2023-04-25T03:38:18;100946.97;;;4.34;100.00
60015;BME280;45867;52.480;6.056;2023-04-25T03:40:43;100956.66;;;4.33;100.00
60015;BME280;45867;52.480;6.056;2023-04-25T03:43:11;100942.38;;;4.29;100.00
60015;BME280;45867;52.480;6.056;2023-04-25T03:45:37;100971.44;;;4.46;100.00
60015;BME280;45867;52.480;6.056;2023-04-25T03:48:02;100960.22;;;4.39;100.00
60015;BME280;45867;52.480;6.056;2023-04-25T03:50:28;100946.75;;;4.35;100.00
60015;BME280;45867;52.480;6.056;2023-04-25T03:52:53;100967.88;;;4.40;100.00
60015;BME280;45867;52.480;6.056;2023-04-25T03:55:19;100959.22;;;4.21;100.00
60015;BME280;45867;52.480;6.056;2023-04-25T03:57:45;100971.69;;;4.26;100.00
60015;BME280;45867;52.480;6.056;2023-04-25T04:00:11;100964.03;;;4.25;100.00
60015;BME280;45867;52.480;6.056;2023-04-25T04:02:36;100980.13;;;4.28;100.00
60015;BME280;45867;52.480;6.056;2023-04-25T04:05:03;100970.94;;;4.19;100.00
60015;BME280;45867;52.480;6.056;2023-04-25T04:07:32;100979.06;;;4.17;100.00
60015;BME280;45867;52.480;6.056;2023-04-25T04:10:01;100993.16;;;4.35;100.00
60015;BME280;45867;52.480;6.056;2023-04-25T04:12:31;101004.59;;;4.40;100.00
60015;BME280;45867;52.480;6.056;2023-04-25T04:14:58;100981.81;;;4.22;100.00
60015;BME280;45867;52.480;6.056;2023-04-25T04:17:25;100988.72;;;4.17;100.00
60015;BME280;45867;52.480;6.056;2023-04-25T04:19:55;100985.97;;;4.12;100.00
60015;BME280;45867;52.480;6.056;2023-04-25T04:26:15;100987.78;;;4.11;100.00
60015;BME280;45867;52.480;6.056;2023-04-25T04:29:09;100994.84;;;4.11;100.00
60015;BME280;45867;52.480;6.056;2023-04-25T04:32:18;100994.06;;;4.10;100.00
60015;BME280;45867;52.480;6.056;2023-04-25T04:46:17;101027.50;;;4.15;100.00
60015;BME280;45867;52.480;6.056;2023-04-25T04:52:30;101022.47;;;4.13;100.00
60015;BME280;45867;52.480;6.056;2023-04-25T04:55:06;101036.31;;;4.20;100.00
60015;BME280;45867;52.480;6.056;2023-04-25T04:58:10;101032.66;;;4.21;100.00
60015;BME280;45867;52.480;6.056;2023-04-25T05:00:53;101035.66;;;4.25;100.00
60015;BME280;45867;52.480;6.056;2023-04-25T05:03:47;101043.16;;;4.21;100.00
60015;BME280;45867;52.480;6.056;2023-04-25T05:06:28;101060.28;;;4.42;100.00
60015;BME280;45867;52.480;6.056;2023-04-25T05:09:37;101042.44;;;4.33;100.00
60015;BME280;45867;52.480;6.056;2023-04-25T05:24:28;101073.56;;;4.29;100.00
60015;BME280;45867;52.480;6.056;2023-04-25T05:33:49;101088.41;;;4.35;100.00
60015;BME280;45867;52.480;6.056;2023-04-25T05:36:49;101091.09;;;4.47;100.00
60015;BME280;45867;52.480;6.056;2023-04-25T05:39:20;101112.66;;;4.56;100.00
60015;BME280;45867;52.480;6.056;2023-04-25T05:41:55;101102.34;;;4.54;100.00
60015;BME280;45867;52.480;6.056;2023-04-25T05:44:52;101104.53;;;4.57;100.00
60015;BME280;45867;52.480;6.056;2023-04-25T05:50:36;101109.50;;;4.65;100.00
60015;BME280;45867;52.480;6.056;2023-04-25T05:53:44;101115.91;;;4.70;100.00
60015;BME280;45867;52.480;6.056;2023-04-25T06:00:06;101153.81;;;4.92;100.00
60015;BME280;45867;52.480;6.056;2023-04-25T06:06:16;101157.09;;;5.66;100.00
60015;BME280;45867;52.480;6.056;2023-04-25T06:09:32;101166.19;;;6.76;100.00
60015;BME280;45867;52.480;6.056;2023-04-25T06:16:51;101169.44;;;7.64;100.00
60015;BME280;45867;52.480;6.056;2023-04-25T06:30:55;101206.06;;;6.33;100.00
60015;BME280;45867;52.480;6.056;2023-04-25T06:37:35;101188.41;;;6.10;100.00
60015;BME280;45867;52.480;6.056;2023-04-25T06:40:35;101198.13;;;5.97;100.00
60015;BME280;45867;52.480;6.056;2023-04-25T06:43:03;101206.97;;;6.15;100.00
60015;BME280;45867;52.480;6.056;2023-04-25T06:46:06;101204.66;;;6.07;100.00
60015;BME280;45867;52.480;6.056;2023-04-25T06:48:42;101218.94;;;5.99;100.00
60015;BME280;45867;52.480;6.056;2023-04-25T06:51:22;101220.81;;;5.80;100.00
60015;BME280;45867;52.480;6.056;2023-04-25T06:53:56;101217.25;;;5.74;100.00
60015;BME280;45867;52.480;6.056;2023-04-25T07:00:07;101221.13;;;6.02;100.00
60015;BME280;45867;52.480;6.056;2023-04-25T07:03:04;101222.28;;;6.18;100.00
60015;BME280;45867;52.480;6.056;2023-04-25T07:06:18;101228.59;;;6.40;100.00
60015;BME280;45867;52.480;6.056;2023-04-25T07:09:35;101243.38;;;6.53;100.00
60015;BME280;45867;52.480;6.056;2023-04-25T07:12:54;101269.97;;;6.63;100.00
60015;BME280;45867;52.480;6.056;2023-04-25T07:15:59;101285.44;;;6.06;100.00
60015;BME280;45867;52.480;6.056;2023-04-25T07:22:06;101266.09;;;4.97;100.00
60015;BME280;45867;52.480;6.056;2023-04-25T07:24:46;101245.94;;;4.90;100.00
60015;BME280;45867;52.480;6.056;2023-04-25T07:27:19;101275.59;;;4.98;100.00
60015;BME280;45867;52.480;6.056;2023-04-25T07:30:45;101253.31;;;4.82;100.00
60015;BME280;45867;52.480;6.056;2023-04-25T07:33:40;101267.41;;;5.06;100.00
60015;BME280;45867;52.480;6.056;2023-04-25T07:39:57;101281.94;;;5.75;100.00
60015;BME280;45867;52.480;6.056;2023-04-25T07:42:58;101273.34;;;6.17;100.00
60015;BME280;45867;52.480;6.056;2023-04-25T07:49:08;101293.53;;;6.82;100.00
60015;BME280;45867;52.480;6.056;2023-04-25T07:52:20;101281.78;;;7.48;100.00
60015;BME280;45867;52.480;6.056;2023-04-25T07:55:09;101296.19;;;8.99;100.00
60015;BME280;45867;52.480;6.056;2023-04-25T07:57:54;101282.44;;;9.63;100.00
60015;BME280;45867;52.480;6.056;2023-04-25T08:00:59;101302.44;;;9.81;100.00
60015;BME280;45867;52.480;6.056;2023-04-25T08:03:48;101323.19;;;9.89;100.00
60015;BME280;45867;52.480;6.056;2023-04-25T08:17:41;101329.03;;;11.93;100.00
60015;BME280;45867;52.480;6.056;2023-04-25T08:23:49;101362.03;;;12.23;100.00
60015;BME280;45867;52.480;6.056;2023-04-25T08:26:45;101337.72;;;13.42;100.00
60015;BME280;45867;52.480;6.056;2023-04-25T08:29:14;101367.94;;;14.21;100.00
60015;BME280;45867;52.480;6.056;2023-04-25T08:32:08;101363.59;;;13.06;100.00
60015;BME280;45867;52.480;6.056;2023-04-25T08:34:45;101343.19;;;14.16;100.00
60015;BME280;45867;52.480;6.056;2023-04-25T08:37:46;101387.53;;;13.21;100.00
60015;BME280;45867;52.480;6.056;2023-04-25T08:40:42;101385.66;;;13.22;100.00
60015;BME280;45867;52.480;6.056;2023-04-25T08:43:32;101379.97;;;11.85;100.00
60015;BME280;45867;52.480;6.056;2023-04-25T08:49:34;101375.88;;;10.67;100.00
60015;BME280;45867;52.480;6.056;2023-04-25T08:52:31;101385.03;;;11.29;100.00
60015;BME280;45867;52.480;6.056;2023-04-25T09:02:51;101410.69;;;13.16;99.20
60015;BME280;45867;52.480;6.056;2023-04-25T09:05:49;101421.25;;;12.03;100.00
60015;BME280;45867;52.480;6.056;2023-04-25T09:08:55;101419.69;;;11.54;100.00
60015;BME280;45867;52.480;6.056;2023-04-25T09:11:45;101420.88;;;10.35;100.00
60015;BME280;45867;52.480;6.056;2023-04-25T09:24:54;101439.56;;;9.23;100.00
60015;BME280;45867;52.480;6.056;2023-04-25T09:27:21;101414.91;;;9.01;100.00
60015;BME280;45867;52.480;6.056;2023-04-25T09:30:28;101418.44;;;9.06;100.00
60015;BME280;45867;52.480;6.056;2023-04-25T09:34:14;101414.94;;;10.82;100.00
60015;BME280;45867;52.480;6.056;2023-04-25T09:36:46;101435.13;;;13.53;100.00
60015;BME280;45867;52.480;6.056;2023-04-25T09:39:39;101440.72;;;13.52;100.00
60015;BME280;45867;52.480;6.056;2023-04-25T09:42:11;101451.94;;;13.03;100.00
60015;BME280;45867;52.480;6.056;2023-04-25T09:44:42;101463.91;;;11.86;100.00
60015;BME280;45867;52.480;6.056;2023-04-25T09:47:12;101456.22;;;10.46;100.00
60015;BME280;45867;52.480;6.056;2023-04-25T09:49:39;101459.41;;;10.26;100.00
60015;BME280;45867;52.480;6.056;2023-04-25T09:52:09;101457.78;;;9.59;100.00
60015;BME280;45867;52.480;6.056;2023-04-25T09:54:40;101458.13;;;10.06;100.00
60015;BME280;45867;52.480;6.056;2023-04-25T09:57:17;101464.69;;;10.20;100.00
60015;BME280;45867;52.480;6.056;2023-04-25T09:59:47;101467.28;;;11.29;100.00
60015;BME280;45867;52.480;6.056;2023-04-25T10:02:23;101462.66;;;11.99;100.00
60015;BME280;45867;52.480;6.056;2023-04-25T10:04:55;101491.31;;;13.11;100.00
60015;BME280;45867;52.480;6.056;2023-04-25T10:07:32;101496.66;;;13.21;100.00
60015;BME280;45867;52.480;6.056;2023-04-25T10:10:03;101477.41;;;11.80;100.00
60015;BME280;45867;52.480;6.056;2023-04-25T10:12:35;101483.38;;;10.14;100.00
60015;BME280;45867;52.480;6.056;2023-04-25T10:15:08;101487.41;;;10.38;100.00
60015;BME280;45867;52.480;6.056;2023-04-25T10:17:37;101482.81;;;12.83;100.00
60015;BME280;45867;52.480;6.056;2023-04-25T10:20:04;101492.75;;;14.64;93.55
60015;BME280;45867;52.480;6.056;2023-04-25T10:22:35;101526.09;;;15.93;76.59
60015;BME280;45867;52.480;6.056;2023-04-25T10:25:02;101502.66;;;15.27;66.53
60015;BME280;45867;52.480;6.056;2023-04-25T10:27:31;101496.00;;;14.95;63.94
60015;BME280;45867;52.480;6.056;2023-04-25T10:30:07;101511.06;;;16.40;64.60
60015;BME280;45867;52.480;6.056;2023-04-25T10:32:38;101512.34;;;16.24;56.43
60015;BME280;45867;52.480;6.056;2023-04-25T10:35:35;101518.53;;;16.81;60.08
60015;BME280;45867;52.480;6.056;2023-04-25T10:38:22;101512.16;;;15.72;55.45
60015;BME280;45867;52.480;6.056;2023-04-25T10:41:06;101510.63;;;16.33;59.79
60015;BME280;45867;52.480;6.056;2023-04-25T10:43:49;101513.91;;;16.06;56.71
60015;BME280;45867;52.480;6.056;2023-04-25T10:46:21;101535.75;;;15.60;53.15
60015;BME280;45867;52.480;6.056;2023-04-25T10:55:25;101527.19;;;16.35;50.25
60015;BME280;45867;52.480;6.056;2023-04-25T10:58:25;101537.81;;;17.77;49.61
60015;BME280;45867;52.480;6.056;2023-04-25T11:29:52;101561.06;;;10.19;100.00
60015;BME280;45867;52.480;6.056;2023-04-25T11:32:39;101557.28;;;9.26;100.00
60015;BME280;45867;52.480;6.056;2023-04-25T11:35:09;101570.53;;;9.43;100.00
60015;BME280;45867;52.480;6.056;2023-04-25T11:37:48;101555.59;;;9.20;100.00
60015;BME280;45867;52.480;6.056;2023-04-25T11:40:28;101547.06;;;8.84;100.00
60015;BME280;45867;52.480;6.056;2023-04-25T11:49:52;101569.75;;;11.35;100.00
60015;BME280;45867;52.480;6.056;2023-04-25T11:52:38;101556.25;;;10.16;100.00
60015;BME280;45867;52.480;6.056;2023-04-25T11:55:05;101554.72;;;9.82;100.00
60015;BME280;45867;52.480;6.056;2023-04-25T11:57:34;101560.25;;;9.29;100.00
60015;BME280;45867;52.480;6.056;2023-04-25T12:00:23;101561.88;;;9.47;100.00
60015;BME280;45867;52.480;6.056;2023-04-25T12:02:53;101551.59;;;9.51;100.00
60015;BME280;45867;52.480;6.056;2023-04-25T12:05:20;101556.53;;;10.59;100.00
60015;BME280;45867;52.480;6.056;2023-04-25T12:07:51;101582.78;;;11.74;100.00
60015;BME280;45867;52.480;6.056;2023-04-25T12:10:43;101578.66;;;12.41;100.00
60015;BME280;45867;52.480;6.056;2023-04-25T12:13:37;101599.94;;;12.36;100.00
60015;BME280;45867;52.480;6.056;2023-04-25T12:16:11;101577.56;;;13.76;94.84
60015;BME280;45867;52.480;6.056;2023-04-25T12:18:37;101616.72;;;13.76;81.40
60015;BME280;45867;52.480;6.056;2023-04-25T12:21:57;101584.09;;;14.30;70.28
60015;BME280;45867;52.480;6.056;2023-04-25T12:31:05;101591.44;;;13.43;84.54
60015;BME280;45867;52.480;6.056;2023-04-25T12:33:33;101602.53;;;12.99;95.93
60015;BME280;45867;52.480;6.056;2023-04-25T12:36:08;101597.28;;;13.65;93.88
60015;BME280;45867;52.480;6.056;2023-04-25T12:38:52;101597.91;;;14.37;89.15
60015;BME280;45867;52.480;6.056;2023-04-25T12:44:37;101611.09;;;14.03;75.36
60015;BME280;45867;52.480;6.056;2023-04-25T12:50:03;101620.97;;;13.72;67.82
60015;BME280;45867;52.480;6.056;2023-04-25T12:52:53;101627.13;;;13.72;72.59
60015;BME280;45867;52.480;6.056;2023-04-25T12:55:32;101624.88;;;14.26;73.51
60015;BME280;45867;52.480;6.056;2023-04-25T12:58:15;101606.44;;;15.04;71.64
60015;BME280;45867;52.480;6.056;2023-04-25T13:01:21;101607.81;;;14.32;71.67
60015;BME280;45867;52.480;6.056;2023-04-25T13:04:06;101625.69;;;14.26;64.75
60015;BME280;45867;52.480;6.056;2023-04-25T13:10:22;101615.09;;;14.01;62.14
60015;BME280;45867;52.480;6.056;2023-04-25T13:13:10;101626.03;;;13.63;65.85
60015;BME280;45867;52.480;6.056;2023-04-25T13:16:38;101613.53;;;14.75;73.22
60015;BME280;45867;52.480;6.056;2023-04-25T13:19:57;101634.78;;;15.35;58.28
60015;BME280;45867;52.480;6.056;2023-04-25T13:23:40;101625.97;;;14.95;55.17
60015;BME280;45867;52.480;6.056;2023-04-25T13:27:22;101613.38;;;12.77;67.55
60015;BME280;45867;52.480;6.056;2023-04-25T13:30:06;101630.56;;;13.37;66.34
60015;BME280;45867;52.480;6.056;2023-04-25T13:35:36;101617.59;;;14.62;63.98
60015;BME280;45867;52.480;6.056;2023-04-25T13:38:34;101634.81;;;13.33;68.71
60015;BME280;45867;52.480;6.056;2023-04-25T13:41:43;101650.69;;;11.97;82.23
60015;BME280;45867;52.480;6.056;2023-04-25T13:51:55;101623.63;;;13.36;70.24
60015;BME280;45867;52.480;6.056;2023-04-25T13:58:12;101624.81;;;12.77;58.96
60015;BME280;45867;52.480;6.056;2023-04-25T14:01:29;101642.03;;;12.64;56.59
60015;BME280;45867;52.480;6.056;2023-04-25T14:04:52;101638.84;;;12.62;62.94
60015;BME280;45867;52.480;6.056;2023-04-25T14:07:26;101644.53;;;12.86;66.34
60015;BME280;45867;52.480;6.056;2023-04-25T14:13:56;101635.72;;;12.81;63.32
60015;BME280;45867;52.480;6.056;2023-04-25T14:23:34;101647.59;;;12.10;66.47
60015;BME280;45867;52.480;6.056;2023-04-25T14:26:49;101636.81;;;12.85;64.57
60015;BME280;45867;52.480;6.056;2023-04-25T14:33:04;101642.09;;;12.22;73.82
60015;BME280;45867;52.480;6.056;2023-04-25T14:36:13;101660.03;;;12.42;78.42
60015;BME280;45867;52.480;6.056;2023-04-25T14:39:12;101649.25;;;11.52;82.35
60015;BME280;45867;52.480;6.056;2023-04-25T14:41:55;101671.44;;;12.00;79.60
60015;BME280;45867;52.480;6.056;2023-04-25T14:44:42;101683.25;;;11.55;79.61
60015;BME280;45867;52.480;6.056;2023-04-25T14:47:12;101668.53;;;11.42;86.52
60015;BME280;45867;52.480;6.056;2023-04-25T14:57:09;101660.81;;;11.68;84.71
60015;BME280;45867;52.480;6.056;2023-04-25T15:07:03;101661.03;;;11.93;78.87
60015;BME280;45867;52.480;6.056;2023-04-25T15:13:56;101682.31;;;11.39;100.00
60015;BME280;45867;52.480;6.056;2023-04-25T15:16:55;101703.38;;;10.41;100.00
60015;BME280;45867;52.480;6.056;2023-04-25T15:19:29;101696.38;;;9.84;100.00
60015;BME280;45867;52.480;6.056;2023-04-25T15:22:08;101670.56;;;9.74;100.00
60015;BME280;45867;52.480;6.056;2023-04-25T15:24:48;101678.19;;;10.05;100.00
60015;BME280;45867;52.480;6.056;2023-04-25T15:27:42;101678.56;;;10.13;100.00
60015;BME280;45867;52.480;6.056;2023-04-25T15:30:11;101696.88;;;10.15;100.00
60015;BME280;45867;52.480;6.056;2023-04-25T15:33:06;101672.81;;;9.99;100.00
60015;BME280;45867;52.480;6.056;2023-04-25T15:35:41;101689.94;;;9.63;100.00
60015;BME280;45867;52.480;6.056;2023-04-25T15:38:46;101713.06;;;9.39;100.00
60015;BME280;45867;52.480;6.056;2023-04-25T15:41:52;101702.41;;;8.82;100.00
60015;BME280;45867;52.480;6.056;2023-04-25T15:44:20;101700.34;;;8.60;100.00
60015;BME280;45867;52.480;6.056;2023-04-25T15:46:55;101678.63;;;8.70;100.00
60015;BME280;45867;52.480;6.056;2023-04-25T15:53:04;101682.22;;;9.45;100.00
60015;BME280;45867;52.480;6.056;2023-04-25T15:59:41;101702.59;;;9.32;100.00
60015;BME280;45867;52.480;6.056;2023-04-25T16:03:01;101691.47;;;9.30;100.00
60015;BME280;45867;52.480;6.056;2023-04-25T16:10:28;101716.63;;;8.81;100.00
60015;BME280;45867;52.480;6.056;2023-04-25T16:13:24;101708.13;;;7.66;100.00
60015;BME280;45867;52.480;6.056;2023-04-25T16:16:10;101726.38;;;6.64;100.00
60015;BME280;45867;52.480;6.056;2023-04-25T16:18:38;101724.84;;;5.99;100.00
60015;BME280;45867;52.480;6.056;2023-04-25T16:21:22;101721.47;;;5.54;100.00
60015;BME280;45867;52.480;6.056;2023-04-25T16:24:11;101725.81;;;5.28;100.00
60015;BME280;45867;52.480;6.056;2023-04-25T16:26:40;101682.19;;;5.21;100.00
60015;BME280;45867;52.480;6.056;2023-04-25T16:29:32;101690.97;;;5.78;100.00
60015;BME280;45867;52.480;6.056;2023-04-25T16:32:48;101666.72;;;6.08;100.00
60015;BME280;45867;52.480;6.056;2023-04-25T16:35:16;101663.13;;;6.45;100.00
60015;BME280;45867;52.480;6.056;2023-04-25T16:41:03;101682.00;;;7.16;100.00
60015;BME280;45867;52.480;6.056;2023-04-25T16:44:04;101676.53;;;7.48;100.00
60015;BME280;45867;52.480;6.056;2023-04-25T16:47:26;101686.81;;;7.79;100.00
60015;BME280;45867;52.480;6.056;2023-04-25T16:50:41;101662.41;;;7.84;100.00
60015;BME280;45867;52.480;6.056;2023-04-25T16:56:58;101672.84;;;7.37;100.00
60015;BME280;45867;52.480;6.056;2023-04-25T17:00:17;101677.09;;;7.50;100.00
60015;BME280;45867;52.480;6.056;2023-04-25T17:02:54;101671.97;;;7.55;100.00
60015;BME280;45867;52.480;6.056;2023-04-25T17:06:05;101675.94;;;7.76;100.00
60015;BME280;45867;52.480;6.056;2023-04-25T17:09:46;101690.84;;;7.82;100.00
60015;BME280;45867;52.480;6.056;2023-04-25T17:12:49;101676.06;;;7.81;100.00
60015;BME280;45867;52.480;6.056;2023-04-25T17:25:53;101706.31;;;7.67;100.00
60015;BME280;45867;52.480;6.056;2023-04-25T17:28:51;101716.13;;;7.29;100.00
60015;BME280;45867;52.480;6.056;2023-04-25T17:31:53;101697.19;;;7.02;100.00
60015;BME280;45867;52.480;6.056;2023-04-25T17:34:40;101696.97;;;7.04;100.00
60015;BME280;45867;52.480;6.056;2023-04-25T17:43:40;101715.19;;;6.87;100.00
60015;BME280;45867;52.480;6.056;2023-04-25T17:50:08;101712.28;;;6.77;100.00
60015;BME280;45867;52.480;6.056;2023-04-25T17:52:50;101712.13;;;6.72;100.00
60015;BME280;45867;52.480;6.056;2023-04-25T17:55:29;101723.28;;;6.67;100.00
60015;BME280;45867;52.480;6.056;2023-04-25T17:58:43;101726.06;;;6.54;100.00
60015;BME280;45867;52.480;6.056;2023-04-25T18:04:39;101724.19;;;6.36;100.00
60015;BME280;45867;52.480;6.056;2023-04-25T18:07:05;101741.06;;;6.28;100.00
60015;BME280;45867;52.480;6.056;2023-04-25T18:09:40;101730.28;;;6.05;100.00
60015;BME280;45867;52.480;6.056;2023-04-25T18:15:11;101754.78;;;6.05;100.00
60015;BME280;45867;52.480;6.056;2023-04-25T18:17:56;101739.94;;;5.79;100.00
60015;BME280;45867;52.480;6.056;2023-04-25T18:20:41;101726.88;;;5.59;100.00
60015;BME280;45867;52.480;6.056;2023-04-25T18:23:31;101733.97;;;5.59;100.00